createdAt,value
2019-01-04T00:01:23.463Z,15.27
2019-01-04T00:03:53.428Z,14.60
2019-01-04T00:06:24.754Z,19.90
2019-01-04T00:08:55.145Z,14.37
2019-01-04T00:11:25.261Z,17.53
2019-01-04T00:13:55.240Z,19.27
2019-01-04T00:16:25.117Z,15.87
2019-01-04T00:18:55.154Z,19.57
2019-01-04T00:21:25.328Z,16.73
2019-01-04T00:23:55.198Z,19.33
2019-01-04T00:26:25.140Z,19.03
2019-01-04T00:28:55.081Z,19.30
2019-01-04T00:31:25.037Z,21.90
2019-01-04T00:33:54.976Z,21.30
2019-01-04T00:36:24.909Z,22.07
2019-01-04T00:38:56.189Z,17.47
2019-01-04T00:41:26.387Z,20.30
2019-01-04T00:43:56.336Z,18.93
2019-01-04T00:46:26.582Z,19.10
2019-01-04T00:48:56.840Z,19.33
2019-01-04T00:51:26.793Z,21.60
2019-01-04T00:53:56.719Z,26.53
2019-01-04T00:56:57.380Z,26.03
2019-01-04T01:00:03.772Z,20.93
2019-01-04T01:03:30.224Z,19.43
2019-01-04T01:06:37.040Z,20.27
2019-01-04T01:09:35.689Z,18.87
2019-01-04T01:12:45.204Z,18.00
2019-01-04T01:15:51.014Z,19.33
2019-01-04T01:18:53.073Z,18.17
2019-01-04T01:21:58.906Z,26.03
2019-01-04T01:25:05.693Z,17.37
2019-01-04T01:28:06.145Z,17.60
2019-01-04T01:31:11.976Z,20.37
2019-01-04T01:34:03.325Z,19.40
2019-01-04T01:37:10.245Z,20.60
2019-01-04T01:40:16.170Z,24.13
2019-01-04T01:43:10.757Z,22.17
2019-01-04T01:46:23.652Z,22.77
2019-01-04T01:49:54.359Z,21.87
2019-01-04T01:52:34.645Z,22.93
2019-01-04T01:55:04.799Z,23.83
2019-01-04T01:57:34.738Z,22.37
2019-01-04T02:00:05.161Z,24.00
2019-01-04T02:02:35.740Z,24.87
2019-01-04T02:05:05.882Z,27.40
2019-01-04T02:07:35.672Z,22.63
2019-01-04T02:10:07.073Z,22.77
2019-01-04T02:12:37.261Z,28.43
2019-01-04T02:15:08.535Z,25.27
2019-01-04T02:17:38.394Z,25.07
2019-01-04T02:20:08.341Z,25.90
2019-01-04T02:22:39.282Z,21.93
2019-01-04T02:25:09.568Z,24.90
2019-01-04T02:27:39.520Z,22.00
2019-01-04T02:30:10.033Z,25.70
2019-01-04T02:32:40.417Z,26.50
2019-01-04T02:35:10.302Z,30.37
2019-01-04T02:37:40.097Z,26.93
2019-01-04T02:40:10.052Z,24.53
2019-01-04T02:42:39.989Z,22.37
2019-01-04T02:45:09.932Z,21.73
2019-01-04T02:47:39.781Z,20.50
2019-01-04T02:50:09.740Z,21.90
2019-01-04T02:52:39.683Z,19.30
2019-01-04T02:55:09.640Z,21.70
2019-01-04T02:57:39.889Z,21.67
2019-01-04T03:00:09.934Z,24.60
2019-01-04T03:02:40.061Z,25.47
2019-01-04T03:05:10.016Z,28.50
2019-01-04T03:07:39.899Z,27.90
2019-01-04T03:10:10.126Z,29.47
2019-01-04T03:12:40.303Z,32.03
2019-01-04T03:15:10.183Z,32.70
2019-01-04T03:17:40.644Z,35.20
2019-01-04T03:20:10.614Z,35.93
2019-01-04T03:22:40.400Z,39.77
2019-01-04T03:25:10.364Z,38.77
2019-01-04T03:27:40.329Z,36.03
2019-01-04T03:30:10.838Z,34.77
2019-01-04T03:32:40.788Z,38.63
2019-01-04T03:35:10.641Z,35.90
2019-01-04T03:37:40.511Z,37.30
2019-01-04T03:40:10.881Z,38.80
2019-01-04T03:42:40.745Z,33.17
2019-01-04T03:45:10.723Z,42.70
2019-01-04T03:47:40.567Z,41.17
2019-01-04T03:50:10.503Z,39.80
2019-01-04T03:52:40.371Z,40.87
2019-01-04T03:55:10.315Z,34.27
2019-01-04T03:57:40.502Z,38.77
2019-01-04T04:00:10.461Z,39.67
2019-01-04T04:02:40.327Z,38.70
2019-01-04T04:05:10.257Z,41.07
2019-01-04T04:07:40.221Z,44.77
2019-01-04T04:10:10.071Z,38.43
2019-01-04T04:12:39.943Z,47.03
2019-01-04T04:15:10.312Z,44.90
2019-01-04T04:17:40.238Z,41.73
2019-01-04T04:20:10.336Z,41.07
2019-01-04T04:22:40.218Z,39.50
2019-01-04T04:25:10.419Z,43.53
2019-01-04T04:27:40.293Z,45.13
2019-01-04T04:30:10.242Z,41.20
2019-01-04T04:32:40.422Z,52.33
2019-01-04T04:35:10.368Z,48.47
2019-01-04T04:37:40.253Z,50.13
2019-01-04T04:40:10.145Z,54.70
2019-01-04T04:42:40.022Z,53.07
2019-01-04T04:45:09.885Z,50.50
2019-01-04T04:47:39.688Z,47.43
2019-01-04T04:50:09.630Z,40.67
2019-01-04T04:52:39.492Z,46.47
2019-01-04T04:55:09.757Z,44.10
2019-01-04T04:57:39.615Z,46.50
2019-01-04T05:00:09.786Z,46.93
2019-01-04T05:02:39.749Z,49.37
2019-01-04T05:05:10.023Z,51.27
2019-01-04T05:07:39.924Z,48.10
2019-01-04T05:10:10.760Z,43.27
2019-01-04T05:12:40.916Z,43.47
2019-01-04T05:15:10.701Z,47.27
2019-01-04T05:17:40.552Z,47.40
2019-01-04T05:20:10.739Z,48.43
2019-01-04T05:22:40.919Z,44.37
2019-01-04T05:25:11.130Z,41.93
2019-01-04T05:27:41.089Z,40.33
2019-01-04T05:30:11.336Z,34.90
2019-01-04T05:32:41.543Z,36.30
2019-01-04T05:35:11.490Z,28.30
2019-01-04T05:37:41.662Z,28.43
2019-01-04T05:40:11.548Z,27.47
2019-01-04T05:42:41.432Z,25.27
2019-01-04T05:45:11.681Z,26.17
2019-01-04T05:47:41.756Z,23.23
2019-01-04T05:50:11.982Z,27.77
2019-01-04T05:52:42.497Z,22.37
2019-01-04T05:55:12.346Z,19.70
2019-01-04T05:57:42.139Z,19.47
2019-01-04T06:00:12.409Z,17.23
2019-01-04T06:02:42.286Z,16.43
2019-01-04T06:05:12.241Z,20.00
2019-01-04T06:07:42.115Z,16.37
2019-01-04T06:10:12.096Z,15.37
2019-01-04T06:12:41.946Z,14.00
2019-01-04T06:15:12.128Z,17.53
2019-01-04T06:17:41.908Z,17.63
2019-01-04T06:20:11.897Z,16.07
2019-01-04T06:22:41.691Z,14.50
2019-01-04T06:25:11.552Z,15.87
2019-01-04T06:27:41.408Z,18.40
2019-01-04T06:30:11.675Z,15.97
2019-01-04T06:32:41.440Z,15.03
2019-01-04T06:35:11.323Z,16.23
2019-01-04T06:37:41.103Z,15.70
2019-01-04T06:40:11.318Z,16.50
2019-01-04T06:42:41.424Z,15.57
2019-01-04T06:45:11.402Z,14.77
2019-01-04T06:47:42.572Z,16.63
2019-01-04T06:50:12.681Z,15.63
2019-01-04T06:52:42.545Z,16.83
2019-01-04T06:55:57.865Z,20.67
2019-01-04T06:58:28.173Z,18.27
2019-01-04T07:00:59.396Z,16.17
2019-01-04T07:03:29.360Z,15.80
2019-01-04T07:05:59.578Z,17.07
2019-01-04T07:08:29.850Z,16.00
2019-01-04T07:11:00.109Z,14.23
2019-01-04T07:13:30.366Z,39.43
2019-01-04T07:16:00.265Z,24.13
2019-01-04T07:18:30.403Z,17.73
2019-01-04T07:21:00.624Z,14.77
2019-01-04T07:23:30.838Z,16.43
2019-01-04T07:26:00.786Z,17.07
2019-01-04T07:28:31.260Z,15.33
2019-01-04T07:31:01.335Z,20.67
2019-01-04T07:33:31.199Z,15.40
2019-01-04T07:36:01.083Z,16.00
2019-01-04T07:38:30.957Z,15.83
2019-01-04T07:41:02.233Z,15.40
2019-01-04T07:43:32.128Z,16.83
2019-01-04T07:46:02.276Z,17.13
2019-01-04T07:48:32.146Z,14.30
2019-01-04T07:51:02.041Z,15.80
2019-01-04T07:53:32.454Z,17.63
2019-01-04T07:56:02.768Z,15.97
2019-01-04T07:58:33.582Z,15.27
2019-01-04T08:01:05.003Z,17.23
2019-01-04T08:03:35.164Z,16.40
2019-01-04T08:06:05.365Z,22.20
2019-01-04T08:08:36.001Z,17.07
2019-01-04T08:11:05.983Z,16.70
2019-01-04T08:13:36.210Z,17.43
2019-01-04T08:16:06.125Z,16.97
2019-01-04T08:18:35.979Z,18.73
2019-01-04T08:21:05.732Z,19.30
2019-01-04T08:23:35.685Z,20.17
2019-01-04T08:26:05.610Z,18.73
2019-01-04T08:28:36.071Z,19.97
2019-01-04T08:31:06.104Z,20.57
2019-01-04T08:33:36.065Z,19.93
2019-01-04T08:36:06.335Z,24.30
2019-01-04T08:38:36.222Z,20.47
2019-01-04T08:41:06.133Z,20.63
2019-01-04T08:43:36.402Z,23.97
2019-01-04T08:46:06.336Z,24.80
2019-01-04T08:48:36.214Z,20.77
2019-01-04T08:51:06.440Z,19.30
2019-01-04T08:53:56.407Z,22.53
2019-01-04T08:56:27.972Z,25.60
2019-01-04T08:58:58.171Z,26.80
2019-01-04T09:01:28.047Z,20.83
2019-01-04T09:03:59.120Z,20.27
2019-01-04T09:06:29.079Z,22.77
2019-01-04T09:08:58.986Z,21.83
2019-01-04T09:11:28.884Z,21.13
2019-01-04T09:13:59.069Z,23.87
2019-01-04T09:16:29.323Z,24.47
2019-01-04T09:18:59.266Z,22.37
2019-01-04T09:21:29.509Z,23.33
2019-01-04T09:23:59.398Z,20.83
2019-01-04T09:26:29.306Z,22.63
2019-01-04T09:28:59.109Z,23.67
2019-01-04T09:31:28.976Z,23.10
2019-01-04T09:33:58.838Z,21.27
2019-01-04T09:36:28.756Z,20.87
2019-01-04T09:39:03.309Z,23.43
2019-01-04T09:41:33.384Z,20.17
2019-01-04T09:44:04.567Z,21.97
2019-01-04T09:46:34.421Z,24.90
2019-01-04T09:49:04.394Z,21.10
2019-01-04T09:51:34.287Z,21.53
2019-01-04T09:54:04.135Z,21.53
2019-01-04T09:56:34.060Z,22.47
2019-01-04T09:59:04.041Z,22.20
2019-01-04T10:01:33.901Z,29.47
2019-01-04T10:04:03.765Z,23.90
2019-01-04T10:06:33.692Z,26.13
2019-01-04T10:09:04.503Z,31.93
2019-01-04T10:11:35.556Z,27.03
2019-01-04T10:14:05.490Z,25.80
2019-01-04T10:16:35.449Z,27.63
2019-01-04T10:19:05.669Z,27.77
2019-01-04T10:21:35.641Z,28.00
2019-01-04T10:24:05.493Z,29.43
2019-01-04T10:26:35.420Z,30.27
2019-01-04T10:29:06.439Z,32.37
2019-01-04T10:31:36.467Z,26.23
2019-01-04T10:34:06.479Z,26.03
2019-01-04T10:36:36.482Z,24.67
2019-01-04T10:39:08.308Z,32.80
2019-01-04T10:41:38.687Z,26.43
2019-01-04T10:44:08.937Z,23.70
2019-01-04T10:46:38.917Z,27.13
2019-01-04T10:49:08.868Z,27.77
2019-01-04T10:51:39.167Z,29.97
2019-01-04T10:54:09.388Z,28.40
2019-01-04T10:56:39.244Z,28.27
2019-01-04T10:59:09.331Z,25.87
2019-01-04T11:01:39.279Z,28.40
2019-01-04T11:04:09.524Z,28.83
2019-01-04T11:06:39.460Z,22.80
2019-01-04T11:09:10.562Z,24.73
2019-01-04T11:11:41.992Z,22.23
2019-01-04T11:14:11.775Z,20.77
2019-01-04T11:16:41.635Z,21.47
2019-01-04T11:19:11.502Z,19.20
2019-01-04T11:21:41.355Z,21.40
2019-01-04T11:25:19.996Z,19.80
2019-01-04T11:28:15.873Z,22.47
2019-01-04T11:31:03.292Z,22.50
2019-01-04T11:34:11.059Z,20.27
2019-01-04T11:37:07.432Z,19.40
2019-01-04T11:40:15.748Z,19.03
2019-01-04T11:43:08.511Z,17.70
2019-01-04T11:46:07.388Z,13.57
2019-01-04T11:49:00.656Z,12.70
2019-01-04T11:51:47.783Z,14.17
2019-01-04T11:54:21.388Z,9.60
2019-01-04T11:56:51.368Z,15.27
2019-01-04T11:59:21.486Z,16.33
2019-01-04T12:01:51.725Z,13.70
2019-01-04T12:04:21.616Z,12.17
2019-01-04T12:06:51.537Z,9.67
2019-01-04T12:09:21.444Z,11.17
2019-01-04T12:11:52.346Z,11.23
2019-01-04T12:14:22.437Z,11.80
2019-01-04T12:16:52.381Z,11.60
2019-01-04T12:19:22.354Z,11.73
2019-01-04T12:21:52.333Z,11.10
2019-01-04T12:24:22.258Z,10.73
2019-01-04T12:26:52.034Z,14.87
2019-01-04T12:29:21.943Z,13.27
2019-01-04T12:31:51.793Z,14.13
2019-01-04T12:34:21.736Z,13.27
2019-01-04T12:36:51.665Z,13.63
2019-01-04T12:39:21.742Z,16.43
2019-01-04T12:41:51.517Z,11.77
2019-01-04T12:44:21.391Z,18.30
2019-01-04T12:46:51.266Z,15.03
2019-01-04T12:49:21.135Z,15.50
2019-01-04T12:51:51.064Z,16.93
2019-01-04T12:54:20.949Z,22.07
2019-01-04T12:56:51.111Z,18.33
2019-01-04T12:59:21.011Z,18.70
2019-01-04T13:01:51.541Z,18.23
2019-01-04T13:04:21.537Z,21.87
2019-01-04T13:06:51.499Z,22.77
2019-01-04T13:09:24.007Z,20.07
2019-01-04T13:11:54.049Z,20.90
2019-01-04T13:14:24.000Z,21.90
2019-01-04T13:16:53.884Z,22.43
2019-01-04T13:19:25.806Z,25.67
2019-01-04T13:21:55.834Z,25.20
2019-01-04T13:24:26.055Z,30.53
2019-01-04T13:26:56.042Z,28.93
2019-01-04T13:29:25.914Z,23.77
2019-01-04T13:31:55.847Z,26.30
2019-01-04T13:34:26.058Z,25.60
2019-01-04T13:36:56.245Z,26.17
2019-01-04T13:39:26.066Z,29.30
2019-01-04T13:41:56.592Z,30.87
2019-01-04T13:44:26.545Z,31.10
2019-01-04T13:46:56.718Z,33.40
2019-01-04T13:49:26.993Z,30.77
2019-01-04T13:51:56.927Z,30.47
2019-01-04T13:54:26.764Z,33.40
2019-01-04T13:56:57.408Z,35.80
2019-01-04T13:59:27.308Z,35.87
2019-01-04T14:01:57.177Z,31.50
2019-01-04T14:04:27.231Z,33.03
2019-01-04T14:06:57.884Z,35.60
2019-01-04T14:09:27.755Z,33.97
2019-01-04T14:11:58.082Z,35.57
2019-01-04T14:14:28.009Z,32.57
2019-01-04T14:16:57.891Z,34.77
2019-01-04T14:19:27.675Z,34.40
2019-01-04T14:21:57.541Z,29.80
2019-01-04T14:24:27.467Z,31.67
2019-01-04T14:26:57.881Z,33.40
2019-01-04T14:29:27.743Z,35.60
2019-01-04T14:31:57.680Z,39.10
2019-01-04T14:34:27.630Z,33.83
2019-01-04T14:36:57.574Z,36.53
2019-01-04T14:39:27.781Z,34.90
2019-01-04T14:41:57.652Z,39.57
2019-01-04T14:44:27.592Z,35.33
2019-01-04T14:46:57.457Z,34.23
2019-01-04T14:49:27.651Z,42.70
2019-01-04T14:51:57.881Z,34.53
2019-01-04T14:54:27.905Z,34.73
2019-01-04T14:56:57.838Z,45.93
2019-01-04T14:59:27.699Z,43.07
2019-01-04T15:01:57.944Z,39.37
2019-01-04T15:04:27.951Z,39.83
2019-01-04T15:06:57.738Z,41.63
2019-01-04T15:09:27.592Z,38.33
2019-01-04T15:11:57.546Z,37.77
2019-01-04T15:14:27.827Z,43.50
2019-01-04T15:16:57.873Z,36.93
2019-01-04T15:19:28.187Z,36.53
2019-01-04T15:21:58.154Z,45.00
2019-01-04T15:24:28.134Z,43.17
2019-01-04T15:26:58.000Z,46.03
2019-01-04T15:29:27.795Z,46.27
2019-01-04T15:31:57.600Z,40.27
2019-01-04T15:34:28.827Z,41.93
2019-01-04T15:36:58.682Z,41.93
2019-01-04T15:39:28.581Z,44.03
2019-01-04T15:42:01.062Z,43.40
2019-01-04T15:44:30.967Z,46.70
2019-01-04T15:47:01.197Z,46.30
2019-01-04T15:49:33.492Z,47.80
2019-01-04T15:52:03.411Z,44.77
2019-01-04T15:54:33.736Z,48.73
2019-01-04T15:57:03.747Z,44.53
2019-01-04T15:59:33.521Z,52.67
2019-01-04T16:02:03.524Z,53.30
2019-01-04T16:04:33.577Z,59.83
2019-01-04T16:07:05.947Z,61.30
2019-01-04T16:09:36.176Z,57.10
2019-01-04T16:12:06.420Z,49.07
2019-01-04T16:14:36.726Z,52.40
2019-01-04T16:17:12.077Z,53.47
2019-01-04T16:19:38.811Z,55.67
2019-01-04T16:22:08.775Z,60.53
2019-01-04T16:24:38.994Z,60.43
2019-01-04T16:27:08.858Z,60.87
2019-01-04T16:29:40.341Z,61.50
2019-01-04T16:32:10.212Z,63.70
2019-01-04T16:34:40.079Z,62.00
2019-01-04T16:37:09.989Z,68.97
2019-01-04T16:39:40.155Z,68.30
2019-01-04T16:42:10.123Z,72.13
2019-01-04T16:44:41.411Z,62.23
2019-01-04T16:47:11.272Z,70.37
2019-01-04T16:49:41.191Z,61.17
2019-01-04T16:52:11.169Z,65.80
2019-01-04T16:54:41.153Z,67.97
2019-01-04T16:57:11.360Z,66.13
2019-01-04T16:59:41.748Z,65.40
2019-01-04T17:02:11.744Z,67.53
2019-01-04T17:04:41.678Z,72.10
2019-01-04T17:07:12.332Z,74.93
2019-01-04T17:09:42.625Z,71.70
2019-01-04T17:12:12.547Z,72.97
2019-01-04T17:14:42.491Z,71.40
2019-01-04T17:17:12.284Z,70.60
2019-01-04T17:19:42.688Z,75.67
2019-01-04T17:22:12.910Z,73.10
2019-01-04T17:24:42.837Z,71.93
2019-01-04T17:27:12.830Z,68.07
2019-01-04T17:29:43.059Z,68.77
2019-01-04T17:32:12.924Z,78.77
2019-01-04T17:34:42.754Z,81.27
2019-01-04T17:37:13.321Z,74.03
2019-01-04T17:39:43.199Z,74.87
2019-01-04T17:42:13.054Z,73.57
2019-01-04T17:44:43.276Z,71.47
2019-01-04T17:47:13.042Z,72.43
2019-01-04T17:49:43.173Z,67.43
2019-01-04T17:52:13.827Z,76.27
2019-01-04T17:54:44.176Z,77.80
2019-01-04T17:57:13.935Z,73.17
2019-01-04T17:59:44.209Z,71.20
2019-01-04T18:02:14.533Z,82.13
2019-01-04T18:04:44.710Z,65.13
2019-01-04T18:07:15.276Z,70.37
2019-01-04T18:09:46.285Z,70.00
2019-01-04T18:12:16.724Z,70.20
2019-01-04T18:14:47.203Z,76.60
2019-01-04T18:17:17.496Z,70.53
2019-01-04T18:19:47.311Z,71.63
2019-01-04T18:22:17.417Z,74.77
2019-01-04T18:24:47.256Z,76.33
2019-01-04T18:27:17.343Z,77.90
2019-01-04T18:29:47.806Z,73.77
2019-01-04T18:32:17.762Z,77.87
2019-01-04T18:34:48.016Z,67.83
2019-01-04T18:37:17.967Z,80.17
2019-01-04T18:39:47.763Z,70.87
2019-01-04T18:42:17.919Z,77.10
2019-01-04T18:44:47.862Z,74.10
2019-01-04T18:47:18.197Z,77.00
2019-01-04T18:49:48.720Z,72.30
2019-01-04T18:52:19.470Z,77.43
2019-01-04T18:54:51.029Z,75.70
2019-01-04T18:57:22.582Z,70.73
2019-01-04T19:00:14.220Z,79.30
2019-01-04T19:02:44.458Z,72.97
2019-01-04T19:05:17.567Z,78.67
2019-01-04T19:07:50.927Z,74.53
2019-01-04T19:10:21.518Z,68.67
2019-01-04T19:12:51.401Z,66.90
2019-01-04T19:15:21.291Z,66.80
2019-01-04T19:17:52.284Z,66.43
2019-01-04T19:20:22.159Z,67.87
2019-01-04T19:22:51.946Z,67.67
2019-01-04T19:25:22.240Z,69.73
2019-01-04T19:27:52.101Z,67.93
2019-01-04T19:30:21.963Z,65.77
2019-01-04T19:32:52.231Z,62.33
2019-01-04T19:35:22.175Z,64.50
2019-01-04T19:37:52.204Z,70.70
2019-01-04T19:40:22.773Z,65.27
2019-01-04T19:42:52.956Z,68.57
2019-01-04T19:45:23.239Z,64.20
2019-01-04T19:47:54.034Z,63.27
2019-01-04T19:50:24.425Z,65.37
2019-01-04T19:52:54.677Z,66.33
2019-01-04T19:55:24.656Z,68.17
2019-01-04T19:57:54.911Z,58.07
2019-01-04T20:00:44.615Z,70.67
2019-01-04T20:03:14.809Z,60.80
2019-01-04T20:06:14.898Z,62.63
2019-01-04T20:09:46.941Z,63.20
2019-01-04T20:13:22.017Z,59.20
2019-01-04T20:16:18.792Z,65.03
2019-01-04T20:19:06.220Z,61.23
2019-01-04T20:22:04.645Z,61.93
2019-01-04T20:24:53.051Z,59.17
2019-01-04T20:27:39.122Z,65.80
2019-01-04T20:30:21.441Z,60.10
2019-01-04T20:33:10.528Z,62.80
2019-01-04T20:35:58.357Z,63.20
2019-01-04T20:38:46.559Z,67.50
2019-01-04T20:41:37.702Z,63.07
2019-01-04T20:44:34.095Z,56.70
2019-01-04T20:47:33.186Z,64.00
2019-01-04T20:50:21.217Z,62.00
2019-01-04T20:53:13.524Z,68.27
2019-01-04T20:56:01.254Z,61.50
2019-01-04T20:58:50.300Z,59.03
2019-01-04T21:01:38.441Z,57.50
2019-01-04T21:04:26.280Z,63.17
2019-01-04T21:07:25.690Z,62.80
2019-01-04T21:10:15.716Z,60.50
2019-01-04T21:13:13.756Z,63.07
2019-01-04T21:16:01.350Z,59.67
2019-01-04T21:18:53.337Z,62.40
2019-01-04T21:21:48.793Z,57.43
2019-01-04T21:24:38.031Z,64.73
2019-01-04T21:27:29.765Z,68.80
2019-01-04T21:30:24.439Z,61.90
2019-01-04T21:33:15.224Z,63.47
2019-01-04T21:36:15.709Z,64.07
2019-01-04T21:39:03.626Z,70.73
2019-01-04T21:42:05.843Z,63.93
2019-01-04T21:45:00.916Z,67.07
2019-01-04T21:47:54.383Z,59.50
2019-01-04T21:50:42.284Z,61.27
2019-01-04T21:53:34.598Z,70.10
2019-01-04T21:56:28.939Z,62.27
2019-01-04T21:59:22.109Z,69.93
2019-01-04T22:02:24.044Z,61.97
2019-01-04T22:05:24.999Z,60.37
2019-01-04T22:08:12.622Z,68.87
2019-01-04T22:11:01.866Z,58.40
2019-01-04T22:13:42.980Z,63.47
2019-01-04T22:16:43.404Z,65.27
2019-01-04T22:19:32.604Z,63.87
2019-01-04T22:22:20.235Z,61.83
2019-01-04T22:25:09.093Z,65.73
2019-01-04T22:28:08.003Z,62.93
2019-01-04T22:31:06.735Z,74.57
2019-01-04T22:34:02.182Z,61.20
2019-01-04T22:36:57.303Z,71.40
2019-01-04T22:39:58.148Z,63.40
2019-01-04T22:43:06.267Z,66.20
2019-01-04T22:45:55.195Z,65.10
2019-01-04T22:48:54.075Z,66.00
2019-01-04T22:51:41.576Z,70.47
2019-01-04T22:54:33.771Z,67.57
2019-01-04T22:57:22.063Z,63.87
2019-01-04T23:00:23.231Z,68.37
2019-01-04T23:03:12.642Z,70.47
2019-01-04T23:05:59.620Z,68.20
2019-01-04T23:08:54.623Z,65.37
2019-01-04T23:11:44.101Z,66.97
2019-01-04T23:14:42.127Z,64.17
2019-01-04T23:17:38.381Z,65.83
2019-01-04T23:20:22.651Z,66.47
2019-01-04T23:23:27.268Z,68.83
2019-01-04T23:26:12.858Z,63.70
2019-01-04T23:29:17.393Z,70.57
2019-01-04T23:32:16.049Z,65.33
2019-01-04T23:35:00.086Z,69.93
2019-01-04T23:37:56.258Z,73.57
2019-01-04T23:40:44.262Z,68.03
2019-01-04T23:43:31.191Z,64.70
2019-01-04T23:46:22.653Z,63.80
2019-01-04T23:49:22.628Z,71.97
2019-01-04T23:52:20.498Z,68.43
2019-01-04T23:55:19.900Z,64.83
2019-01-04T23:58:11.633Z,64.13
